Terminal Aerodrome Forecast
Issued by NWS Tampa Bay Area, FL

Home | Current Version | Previous Version | Text Only | Print | Product List | Glossary On
Versions: 1 2 3 4 5 6 7 8 9 10 11 12 13 14
000
FTUS42 KTBW 050540
TAFFMY
TAF
KFMY 050540Z 0506/0606 VRB03KT P6SM FEW035 SCT250
     FM051400 33005KT P6SM SCT035 SCT250
     FM051800 30007KT P6SM VCTS SCT035CB BKN250
     FM060000 02004KT P6SM SCT050 SCT250=

USA.gov is the U.S. government's official web portal to all federal, state and local government web resources and services.